This is the latest recevied weather packets stored in our database for station/object W6TKD-13. If no packets are shown the sender has not sent any weather packets the latest 10 day(s).
| Time | Temp. | Humidity | Pressure | Rain* | Wind** | Luminosity | Snow |
|---|---|---|---|---|---|---|---|
| 1788118025 | 31.11° C | 21% | 1013.7 hPa | 0 mm | - | - | - |
| 1788117358 | 31.11° C | 21% | 1013.7 hPa | 0 mm | - | - | - |
| 1788116691 | 31.11° C | 20% | 1013.8 hPa | 0 mm | - | - | - |
| 1788116024 | 31.67° C | 20% | 1013.9 hPa | 0 mm | - | - | - |
| 1788115358 | 32.22° C | 20% | 1013.9 hPa | 0 mm | - | - | - |
| 1788114691 | 32.78° C | 19% | 1013.9 hPa | 0 mm | - | - | - |
| 1788114025 | 33.89° C | 19% | 1013.8 hPa | 0 mm | - | - | - |
| 1788113358 | 35.56° C | 18% | 1013.9 hPa | 0 mm | - | - | - |
| 1788112690 | 36.67° C | 18% | 1013.9 hPa | 0 mm | - | - | - |
| 1788112024 | 38.33° C | 17% | 1013.8 hPa | 0 mm | - | - | - |
| 1788111355 | 38.89° C | 17% | 1013.7 hPa | 0 mm | - | - | - |
| 1788110688 | 38.33° C | 18% | 1013.6 hPa | 0 mm | - | - | - |
| 1788110021 | 38.89° C | 19% | 1013.6 hPa | 0 mm | - | - | - |
| 1788108687 | 36.11° C | 23% | 1013.7 hPa | 0 mm | - | - | - |
| 1788108021 | 34.44° C | 26% | 1013.6 hPa | 0 mm | - | - | - |
| 1788107354 | 31.11° C | 29% | 1013.7 hPa | 0 mm | - | - | - |
| 1788106687 | 26.67° C | 34% | 1013.7 hPa | 0 mm | - | - | - |
| 1788106022 | 22.22° C | 37% | 1013.9 hPa | 0 mm | - | - | - |
| 1788105353 | 19.44° C | 39% | 1014 hPa | 0 mm | - | - | - |
| 1788104687 | 17.78° C | 40% | 1014.1 hPa | 0 mm | - | - | - |
| 1788104020 | 16.67° C | 39% | 1014.1 hPa | 0 mm | - | - | - |
| 1788103355 | 16.11° C | 39% | 1014.2 hPa | 0 mm | - | - | - |
| 1788102685 | 15.56° C | 40% | 1014.2 hPa | 0 mm | - | - | - |
| 1788102019 | 14.44° C | 40% | 1014.2 hPa | 0 mm | - | - | - |
| 1788101351 | 13.89° C | 40% | 1014.3 hPa | 0 mm | - | - | - |
* Rain since midnight (hover to see other rain measurements)
** Current wind speed in m/s (hover to see current wind gust speed)